Time;durP1;ratioP1;P1;durP2;ratioP2;P2;SDS_P1;SDS_P2;PMS_P1;PMS_P2;Temp;Humidity;BMP_temperature;BMP_pressure;BME280_temperature;BME280_humidity;BME280_pressure;Samples;Min_cycle;Max_cycle;Signal;HPM_P1;HPM_P2
2022/01/24 00:01:49;;;;;;;7.43;6.65;;;6.50;99.90;;;;;;6215700;23;20058;-84
2022/01/24 00:04:15;;;;;;;9.27;6.70;;;6.30;99.90;;;;;;6216355;23;20012;-84
2022/01/24 00:06:41;;;;;;;7.88;6.70;;;5.70;99.90;;;;;;6243337;23;20420;-84
2022/01/24 00:09:08;;;;;;;7.72;6.22;;;6.10;99.90;;;;;;6241538;23;20031;-84
2022/01/24 00:11:59;;;;;;;8.45;6.63;;;5.70;99.90;;;;;;6215969;23;20012;-84
2022/01/24 00:27:21;;;;;;;6.80;6.03;;;6.00;99.90;;;;;;6242842;23;20291;-84
2022/01/24 00:29:47;;;;;;;7.30;6.00;;;5.70;99.90;;;;;;6215763;23;20027;-84
2022/01/24 00:32:13;;;;;;;9.55;6.05;;;5.60;99.90;;;;;;6215486;23;20008;-84
2022/01/24 00:34:39;;;;;;;9.13;6.30;;;5.60;99.90;;;;;;6187915;23;20016;-84
2022/01/24 00:37:05;;;;;;;8.02;6.03;;;5.60;99.90;;;;;;6190336;23;20008;-84
2022/01/24 00:39:31;;;;;;;10.68;6.28;;;5.60;99.90;;;;;;6190087;23;20069;-83
2022/01/24 00:42:17;;;;;;;6.93;5.72;;;5.60;99.90;;;;;;6215239;23;20383;-84
2022/01/24 00:49:52;;;;;;;7.72;5.93;;;5.90;99.90;;;;;;6215744;23;20035;-84
2022/01/24 00:55:04;;;;;;;6.25;5.65;;;5.50;99.90;;;;;;6243139;23;20020;-84
2022/01/24 00:57:30;;;;;;;7.18;5.60;;;5.50;99.90;;;;;;6216719;23;20016;-84
2022/01/24 00:59:55;;;;;;;7.35;5.70;;;5.50;99.90;;;;;;6190997;23;20070;-83
2022/01/24 01:02:21;;;;;;;10.65;5.47;;;6.00;99.90;;;;;;6215875;23;20375;-83
2022/01/24 01:07:37;;;;;;;6.43;5.57;;;5.40;99.90;;;;;;6213534;23;20030;-83
2022/01/24 01:18:23;;;;;;;8.18;5.82;;;5.40;99.90;;;;;;6243697;23;20020;-84
2022/01/24 01:23:38;;;;;;;7.85;6.05;;;5.90;99.90;;;;;;6243368;23;20020;-84
2022/01/24 01:26:59;;;;;;;7.20;5.50;;;6.20;99.90;;;;;;6242675;23;20034;-86
2022/01/24 01:29:33;;;;;;;7.38;5.85;;;5.40;99.90;;;;;;6124908;23;20013;-84
2022/01/24 01:34:48;;;;;;;8.65;6.22;;;5.30;99.90;;;;;;6126533;23;20028;-84
2022/01/24 01:54:36;;;;;;;6.87;5.37;;;5.20;99.90;;;;;;6151878;23;20364;-84
2022/01/24 01:56:43;;;;;;;8.02;5.47;;;5.30;99.90;;;;;;6121429;23;20093;-84
2022/01/24 01:59:08;;;;;;;8.05;5.38;;;5.30;99.90;;;;;;6103443;23;20072;-84
2022/01/24 02:01:34;;;;;;;6.93;5.28;;;5.20;99.90;;;;;;6127235;23;20021;-84
2022/01/24 02:04:03;;;;;;;8.35;5.43;;;5.20;99.90;;;;;;6126107;23;20013;-84
2022/01/24 02:06:29;;;;;;;8.55;5.72;;;5.20;99.90;;;;;;6153334;23;20024;-83
2022/01/24 02:09:12;;;;;;;5.93;5.00;;;5.20;99.90;;;;;;6182356;23;20020;-84
2022/01/24 02:11:38;;;;;;;9.65;5.28;;;5.20;99.90;;;;;;6183113;23;20017;-84
2022/01/24 02:14:09;;;;;;;7.35;5.22;;;5.20;99.90;;;;;;6181857;23;20072;-84
2022/01/24 02:24:25;;;;;;;6.55;4.88;;;6.00;99.90;;;;;;6179150;22;20017;-84
2022/01/24 02:26:55;;;;;;;7.45;5.40;;;6.00;99.90;;;;;;6155869;23;20021;-84
2022/01/24 02:30:11;;;;;;;7.43;4.97;;;5.00;99.90;;;;;;6127908;23;20381;-84
2022/01/24 02:32:11;;;;;;;6.65;5.90;;;5.70;99.90;;;;;;6170627;23;20017;-83
2022/01/24 02:34:40;;;;;;;6.20;5.30;;;5.10;99.90;;;;;;6153101;23;20013;-84
2022/01/24 02:37:09;;;;;;;6.50;5.35;;;5.20;99.90;;;;;;6127811;23;20079;-84
2022/01/24 02:51:21;;;;;;;6.90;5.78;;;5.10;99.90;;;;;;6155573;23;20013;-85
2022/01/24 02:53:23;;;;;;;7.68;5.55;;;5.70;99.90;;;;;;6150566;23;20031;-85
2022/01/24 02:55:49;;;;;;;7.70;5.88;;;5.80;99.90;;;;;;6152598;23;20104;-84
2022/01/24 02:58:16;;;;;;;7.18;5.72;;;5.10;99.90;;;;;;6175842;23;20095;-83
2022/01/24 03:00:45;;;;;;;7.78;6.30;;;5.90;99.90;;;;;;6190703;23;20095;-84
2022/01/24 03:03:10;;;;;;;9.48;5.95;;;5.10;99.90;;;;;;6190789;23;20078;-85
2022/01/24 03:05:36;;;;;;;7.03;5.72;;;5.10;99.90;;;;;;6187834;23;20598;-84
2022/01/24 03:08:03;;;;;;;7.25;5.88;;;5.10;99.90;;;;;;6214956;23;20066;-84
2022/01/24 03:10:42;;;;;;;7.75;5.57;;;5.30;99.90;;;;;;6190488;23;20408;-85
2022/01/24 03:13:20;;;;;;;9.32;6.05;;;5.00;99.90;;;;;;6189732;23;20443;-84
2022/01/24 03:15:51;;;;;;;7.68;6.20;;;5.80;99.90;;;;;;6214476;23;20093;-85
2022/01/24 03:18:18;;;;;;;7.32;5.95;;;5.70;99.90;;;;;;6213730;23;20018;-84
2022/01/24 03:20:44;;;;;;;8.57;6.15;;;5.70;99.90;;;;;;6187475;23;20039;-83
2022/01/24 03:23:10;;;;;;;8.30;6.32;;;5.00;99.90;;;;;;6188391;23;20083;-84
2022/01/24 03:25:36;;;;;;;7.38;6.07;;;5.00;99.90;;;;;;6187433;23;20016;-84
2022/01/24 03:28:04;;;;;;;8.55;6.45;;;5.10;99.90;;;;;;6213813;23;20012;-84
2022/01/24 03:30:30;;;;;;;8.05;6.30;;;5.00;99.90;;;;;;6188875;23;20099;-84
2022/01/24 03:32:56;;;;;;;10.50;6.68;;;5.00;99.90;;;;;;6188664;23;20070;-84
2022/01/24 03:35:22;;;;;;;9.10;6.63;;;5.00;99.90;;;;;;6187847;23;20031;-83
2022/01/24 03:37:48;;;;;;;9.10;6.78;;;5.20;99.90;;;;;;6187996;23;20023;-84
2022/01/24 03:40:14;;;;;;;9.65;6.55;;;5.00;99.90;;;;;;6211899;23;20023;-84
2022/01/24 03:42:40;;;;;;;7.38;6.40;;;5.00;99.90;;;;;;6213220;23;20435;-84
2022/01/24 03:45:09;;;;;;;8.77;6.78;;;5.60;99.90;;;;;;6239413;23;20020;-84
2022/01/24 03:50:03;;;;;;;8.63;6.85;;;5.50;99.90;;;;;;6213165;23;20101;-83
2022/01/24 03:52:31;;;;;;;8.20;7.05;;;5.00;99.90;;;;;;6187751;23;20008;-84
2022/01/24 03:54:58;;;;;;;9.95;7.57;;;5.00;99.90;;;;;;6213021;23;20395;-84
2022/01/24 03:57:26;;;;;;;10.63;7.32;;;5.40;99.90;;;;;;6216529;23;20153;-84
2022/01/24 03:59:52;;;;;;;10.68;7.55;;;5.80;99.90;;;;;;6240929;23;20015;-83
2022/01/24 04:02:20;;;;;;;10.27;7.50;;;5.00;99.90;;;;;;6238848;23;20020;-84
2022/01/24 04:04:46;;;;;;;9.43;7.57;;;5.00;99.90;;;;;;6214234;23;20043;-84
2022/01/24 04:07:12;;;;;;;8.95;7.38;;;5.00;99.90;;;;;;6212760;23;20071;-83
2022/01/24 04:09:40;;;;;;;12.32;7.53;;;5.60;99.90;;;;;;6189107;23;20020;-84
2022/01/24 04:12:07;;;;;;;8.75;7.03;;;5.50;99.90;;;;;;6187183;23;20124;-84
2022/01/24 04:14:41;;;;;;;10.27;7.88;;;5.00;99.90;;;;;;6241376;23;20048;-84
2022/01/24 04:22:11;;;;;;;8.85;7.15;;;5.00;99.90;;;;;;6213124;23;20019;-83
2022/01/24 04:24:37;;;;;;;10.20;8.13;;;5.00;99.90;;;;;;6188201;23;20097;-85
2022/01/24 04:27:05;;;;;;;11.63;8.57;;;4.90;99.90;;;;;;6187722;23;20012;-85
2022/01/24 04:29:32;;;;;;;10.10;8.00;;;5.00;99.90;;;;;;6188471;23;20016;-85
2022/01/24 04:31:57;;;;;;;10.45;8.60;;;5.80;99.90;;;;;;6188578;23;20387;-84
2022/01/24 04:34:23;;;;;;;14.77;9.25;;;5.90;99.90;;;;;;6214681;23;20012;-84
2022/01/24 04:36:49;;;;;;;12.80;8.55;;;5.60;99.90;;;;;;6191978;23;20012;-84
2022/01/24 04:39:16;;;;;;;13.95;9.23;;;5.00;99.90;;;;;;6243075;23;20020;-85
2022/01/24 04:41:46;;;;;;;14.98;8.93;;;5.00;99.90;;;;;;6216747;23;20116;-85
2022/01/24 04:52:17;;;;;;;13.05;9.70;;;5.60;99.90;;;;;;6239507;23;20409;-85
2022/01/24 04:54:43;;;;;;;16.13;9.60;;;5.40;99.90;;;;;;6188810;23;20012;-84
2022/01/24 04:57:11;;;;;;;16.73;10.32;;;5.80;99.90;;;;;;6187693;23;20023;-84
2022/01/24 04:59:38;;;;;;;15.20;10.02;;;5.70;99.90;;;;;;6187889;23;20730;-84
2022/01/24 05:02:04;;;;;;;15.25;11.00;;;4.80;99.90;;;;;;6213745;23;20035;-85
2022/01/24 05:04:30;;;;;;;16.42;10.48;;;5.20;99.90;;;;;;6191007;23;20095;-84
2022/01/24 05:06:56;;;;;;;15.15;10.70;;;4.90;99.90;;;;;;6187830;23;20020;-83
2022/01/24 05:09:22;;;;;;;14.32;10.07;;;5.90;99.90;;;;;;6215359;23;20016;-85
2022/01/24 05:25:24;;;;;;;17.23;11.05;;;5.10;99.90;;;;;;6150027;23;20599;-85
2022/01/24 05:27:50;;;;;;;16.35;11.25;;;4.90;99.90;;;;;;6127772;23;20049;-84
2022/01/24 05:30:16;;;;;;;18.33;12.02;;;5.70;99.90;;;;;;6175580;23;20368;-85
2022/01/24 05:32:43;;;;;;;16.60;11.23;;;4.90;99.90;;;;;;6126426;23;20135;-83
2022/01/24 05:35:09;;;;;;;15.90;11.80;;;5.70;99.90;;;;;;6125968;23;20013;-85
2022/01/24 05:37:34;;;;;;;19.92;12.32;;;5.00;99.90;;;;;;6126799;23;20519;-85
2022/01/24 05:40:00;;;;;;;17.95;12.30;;;5.00;99.90;;;;;;6150170;23;20035;-85
2022/01/24 05:42:26;;;;;;;18.55;12.88;;;5.80;99.90;;;;;;6151978;23;20091;-86
2022/01/24 05:44:54;;;;;;;19.15;12.88;;;5.00;99.90;;;;;;6176188;23;20048;-85
2022/01/24 05:47:20;;;;;;;20.95;13.05;;;5.00;99.90;;;;;;6174527;23;20009;-84
2022/01/24 05:49:46;;;;;;;20.00;13.75;;;5.40;99.90;;;;;;6128516;23;20088;-84
2022/01/24 05:52:12;;;;;;;25.33;14.93;;;5.10;99.90;;;;;;6151845;23;20108;-84
2022/01/24 05:54:42;;;;;;;19.50;13.60;;;5.40;99.90;;;;;;6126610;23;20020;-84
2022/01/24 05:57:09;;;;;;;20.05;12.93;;;4.90;99.90;;;;;;6229788;23;20314;-84
2022/01/24 05:59:36;;;;;;;18.77;13.38;;;4.90;99.90;;;;;;6187606;23;20050;-84
2022/01/24 06:02:03;;;;;;;19.98;13.23;;;4.90;99.90;;;;;;6186495;23;20035;-84
2022/01/24 06:04:57;;;;;;;22.83;13.32;;;4.90;99.90;;;;;;6187269;23;20082;-85
2022/01/24 06:07:22;;;;;;;18.55;12.77;;;4.90;99.90;;;;;;6212387;23;20023;-83
2022/01/24 06:09:48;;;;;;;20.08;13.13;;;5.60;99.90;;;;;;6188009;23;20035;-84
2022/01/24 06:12:25;;;;;;;19.83;12.90;;;5.70;99.90;;;;;;6188031;23;20012;-84
2022/01/24 06:15:23;;;;;;;20.42;13.63;;;4.50;99.90;;;;;;6216800;23;20125;-84
2022/01/24 06:17:48;;;;;;;;;;;4.90;99.90;;;;;;6191511;23;20016;-85
2022/01/24 06:20:14;;;;;;;18.65;12.90;;;5.10;99.90;;;;;;6216859;23;20262;-86
2022/01/24 06:22:40;;;;;;;19.48;12.90;;;4.80;99.90;;;;;;6190483;23;20020;-85
2022/01/24 06:25:08;;;;;;;19.77;12.85;;;5.20;99.90;;;;;;6190445;23;20027;-84
2022/01/24 06:27:34;;;;;;;20.10;13.13;;;4.80;99.90;;;;;;6214831;23;20035;-84
2022/01/24 06:29:59;;;;;;;18.88;12.77;;;5.60;99.90;;;;;;6217365;23;20349;-84
2022/01/24 06:32:25;;;;;;;20.77;13.25;;;4.90;99.90;;;;;;6215145;23;20318;-85
2022/01/24 06:34:51;;;;;;;19.52;13.35;;;4.90;99.90;;;;;;6190398;23;20087;-85
2022/01/24 06:37:16;;;;;;;22.15;14.27;;;4.80;99.90;;;;;;6215334;23;20065;-85
2022/01/24 06:39:52;;;;;;;18.02;12.57;;;4.90;99.90;;;;;;6214455;23;20019;-84
2022/01/24 06:42:44;;;;;;;17.10;12.70;;;4.80;99.90;;;;;;6190384;23;20015;-86
2022/01/24 06:45:10;;;;;;;8.20;5.22;;;4.90;99.90;;;;;;6185355;23;20016;-82
2022/01/24 06:47:58;;;;;;;19.45;12.55;;;6.10;99.90;;;;;;6240889;23;20031;-82
2022/01/24 06:50:24;;;;;;;16.88;12.07;;;4.80;99.90;;;;;;6187782;23;20047;-81
2022/01/24 06:52:50;;;;;;;17.80;12.68;;;5.50;99.90;;;;;;6191026;23;20024;-81
2022/01/24 06:55:16;;;;;;;17.05;12.32;;;5.70;99.90;;;;;;6187461;23;20119;-81
2022/01/24 06:58:03;;;;;;;16.95;12.32;;;5.80;99.90;;;;;;6191155;23;20020;-81
2022/01/24 07:00:31;;;;;;;16.95;12.20;;;5.20;99.90;;;;;;6162635;23;20073;-81
2022/01/24 07:02:57;;;;;;;17.23;12.05;;;6.00;99.90;;;;;;6190138;23;20035;-82
2022/01/24 07:05:25;;;;;;;20.50;12.88;;;5.10;99.90;;;;;;6189145;23;20027;-82
2022/01/24 07:07:56;;;;;;;19.38;12.85;;;5.10;99.90;;;;;;6187771;23;20161;-80
2022/01/24 07:10:25;;;;;;;20.40;12.57;;;5.80;99.90;;;;;;6214572;23;20024;-82
2022/01/24 07:12:52;;;;;;;18.42;12.63;;;5.00;99.90;;;;;;6189311;23;20012;-82
2022/01/24 07:15:21;;;;;;;17.85;12.30;;;5.00;99.90;;;;;;6190068;23;20070;-82
2022/01/24 07:18:15;;;;;;;17.58;11.98;;;4.90;99.90;;;;;;6191012;23;20436;-82
2022/01/24 07:20:40;;;;;;;17.08;11.57;;;5.80;99.90;;;;;;6191149;23;20373;-81
2022/01/24 07:23:18;;;;;;;18.20;11.77;;;4.90;99.90;;;;;;6190795;23;20092;-82
2022/01/24 07:25:56;;;;;;;18.48;12.40;;;5.20;99.90;;;;;;6191532;23;20672;-82
2022/01/24 07:28:24;;;;;;;20.98;12.27;;;5.20;99.90;;;;;;6189580;23;20063;-82
2022/01/24 07:45:36;;;;;;;19.95;10.57;;;4.80;99.90;;;;;;5922462;24;20025;-82
2022/01/24 07:48:14;;;;;;;17.58;11.48;;;5.50;99.90;;;;;;5922152;24;20149;-81
2022/01/24 07:50:51;;;;;;;15.48;11.30;;;5.60;99.90;;;;;;5922096;24;20132;-81
2022/01/24 07:53:54;;;;;;;17.45;11.73;;;5.20;99.90;;;;;;5921797;24;20021;-81
2022/01/24 07:56:30;;;;;;;16.48;11.73;;;5.00;99.90;;;;;;5921701;24;20462;-81
2022/01/24 07:59:06;;;;;;;16.67;11.77;;;5.00;99.90;;;;;;5922278;24;20060;-80
2022/01/24 08:01:42;;;;;;;16.15;12.18;;;4.90;99.90;;;;;;5921936;23;20028;-79
2022/01/24 08:04:17;;;;;;;16.13;11.50;;;5.00;99.90;;;;;;5923246;24;20135;-78
2022/01/24 08:06:53;;;;;;;17.58;10.93;;;5.10;99.90;;;;;;5923666;24;20391;-79
2022/01/24 08:09:19;;;;;;;23.13;12.57;;;4.90;99.90;;;;;;5927826;24;20092;-78
2022/01/24 08:11:46;;;;;;;16.88;11.32;;;5.00;99.90;;;;;;6083443;23;20339;-78
2022/01/24 08:14:11;;;;;;;15.63;11.65;;;5.00;99.90;;;;;;6097621;23;20014;-78
2022/01/24 08:16:39;;;;;;;16.33;11.45;;;5.10;99.90;;;;;;6198641;23;20008;-77
2022/01/24 08:19:04;;;;;;;15.80;11.23;;;5.00;99.90;;;;;;6191293;23;20020;-78
2022/01/24 08:21:30;;;;;;;16.67;12.05;;;5.00;99.90;;;;;;6193358;23;20027;-79
2022/01/24 08:23:56;;;;;;;16.85;11.70;;;5.00;99.90;;;;;;6214567;23;20023;-79
2022/01/24 08:26:22;;;;;;;18.85;12.40;;;5.00;99.90;;;;;;6216343;23;20023;-79
2022/01/24 08:28:48;;;;;;;18.95;12.93;;;5.00;99.90;;;;;;6216965;23;20043;-79
2022/01/24 08:31:14;;;;;;;17.65;12.32;;;5.10;99.90;;;;;;6191473;23;20012;-77
2022/01/24 08:33:40;;;;;;;15.35;11.82;;;5.00;99.90;;;;;;6215582;23;20023;-76
2022/01/24 08:36:06;;;;;;;19.05;12.05;;;5.00;99.90;;;;;;6216443;23;20297;-79
2022/01/24 08:38:35;;;;;;;22.45;12.25;;;5.20;99.90;;;;;;6215814;23;20016;-78
2022/01/24 08:41:07;;;;;;;17.17;12.48;;;5.10;99.90;;;;;;6189832;23;20023;-78
2022/01/24 08:46:04;;;;;;;20.33;12.98;;;5.80;99.90;;;;;;6215138;23;20024;-77
2022/01/24 08:48:31;;;;;;;18.52;11.00;;;5.60;99.90;;;;;;6190318;23;20022;-77
2022/01/24 08:50:59;;;;;;;19.15;13.40;;;5.60;99.90;;;;;;6192144;23;20008;-78
2022/01/24 08:53:34;;;;;;;17.63;12.45;;;5.50;99.90;;;;;;6190276;23;20008;-77
2022/01/24 08:56:02;;;;;;;22.10;13.43;;;5.70;99.90;;;;;;6214484;23;20016;-78
2022/01/24 08:58:28;;;;;;;19.60;13.88;;;5.60;99.90;;;;;;6214082;23;20023;-79
2022/01/24 09:00:54;;;;;;;20.45;13.90;;;5.50;99.90;;;;;;6188585;23;20020;-77
2022/01/24 09:03:20;;;;;;;18.10;12.63;;;5.50;99.90;;;;;;6214305;23;20023;-76
2022/01/24 09:05:47;;;;;;;18.08;12.82;;;5.40;99.90;;;;;;6213865;23;20079;-77
2022/01/24 09:08:14;;;;;;;20.80;13.93;;;5.40;99.90;;;;;;6214324;23;20012;-76
2022/01/24 09:10:40;;;;;;;18.65;13.30;;;5.40;99.90;;;;;;6214349;23;20463;-76
2022/01/24 09:13:07;;;;;;;21.13;13.93;;;5.40;99.90;;;;;;6214296;23;20345;-76
2022/01/24 09:15:33;;;;;;;21.65;14.15;;;5.40;99.90;;;;;;6214122;23;20091;-77
2022/01/24 09:17:59;;;;;;;18.08;12.95;;;5.40;99.90;;;;;;6214840;23;20055;-76
2022/01/24 09:20:25;;;;;;;18.50;13.25;;;5.30;99.90;;;;;;6215189;23;20016;-78
2022/01/24 09:22:51;;;;;;;19.15;13.65;;;5.40;99.90;;;;;;6215998;23;20039;-77
2022/01/24 09:25:18;;;;;;;20.65;14.05;;;5.40;99.90;;;;;;6213320;23;20123;-78
2022/01/24 09:27:45;;;;;;;25.08;16.17;;;5.40;99.90;;;;;;6215381;23;20258;-77
2022/01/24 09:30:16;;;;;;;22.05;15.57;;;5.40;99.90;;;;;;6189512;23;20086;-80
2022/01/24 09:32:42;;;;;;;20.15;14.80;;;5.30;99.90;;;;;;6214998;23;20040;-79
2022/01/24 09:35:11;;;;;;;22.77;15.90;;;5.40;99.90;;;;;;6214403;23;20031;-80
2022/01/24 09:37:37;;;;;;;20.63;14.90;;;5.40;99.90;;;;;;6188908;23;20047;-77
2022/01/24 09:40:04;;;;;;;21.08;15.48;;;5.40;99.90;;;;;;6214777;23;20013;-77
2022/01/24 09:42:30;;;;;;;24.65;15.65;;;5.40;99.90;;;;;;6189386;23;20479;-77
2022/01/24 09:44:56;;;;;;;26.20;17.08;;;5.40;99.90;;;;;;6214117;23;20020;-77
2022/01/24 09:47:22;;;;;;;24.02;16.38;;;5.50;99.90;;;;;;6214890;23;20142;-76
2022/01/24 09:49:49;;;;;;;24.45;16.75;;;5.50;99.90;;;;;;6190554;23;20024;-77
2022/01/24 09:52:15;;;;;;;25.13;17.38;;;5.50;99.90;;;;;;6216089;23;20016;-77
2022/01/24 09:54:41;;;;;;;28.70;17.88;;;5.50;99.90;;;;;;6218581;23;20425;-77
2022/01/24 09:57:06;;;;;;;25.05;17.00;;;5.60;99.90;;;;;;6168451;23;20050;-77
2022/01/24 09:59:32;;;;;;;27.83;17.27;;;5.50;99.90;;;;;;6189880;23;20016;-81
2022/01/24 10:01:59;;;;;;;27.10;17.98;;;5.50;99.90;;;;;;6191613;23;20646;-81
2022/01/24 10:04:26;;;;;;;24.60;17.75;;;5.60;99.90;;;;;;6215394;23;20012;-81
2022/01/24 10:07:00;;;;;;;27.58;18.67;;;5.60;99.90;;;;;;6218331;23;20118;-80
2022/01/24 10:09:41;;;;;;;29.88;19.45;;;5.70;99.90;;;;;;6218048;23;20019;-81
2022/01/24 10:17:41;;;;;;;29.90;21.52;;;5.70;99.90;;;;;;6218008;23;20168;-78
2022/01/24 10:20:22;;;;;;;35.78;22.50;;;5.60;99.90;;;;;;6191500;23;20022;-79
2022/01/24 10:23:20;;;;;;;37.10;23.70;;;5.70;99.90;;;;;;6244921;23;20074;-78
2022/01/24 10:26:03;;;;;;;36.90;23.33;;;5.70;99.90;;;;;;6217221;23;20035;-79
2022/01/24 10:28:31;;;;;;;37.67;23.83;;;5.70;99.90;;;;;;6217928;23;20402;-81
2022/01/24 10:31:06;;;;;;;36.75;23.70;;;5.80;99.90;;;;;;6192334;23;20407;-79
2022/01/24 10:33:51;;;;;;;37.22;23.92;;;5.80;99.90;;;;;;6217054;23;20008;-79
2022/01/24 10:36:36;;;;;;;35.67;23.77;;;5.70;99.90;;;;;;6192848;23;20012;-81
2022/01/24 10:39:12;;;;;;;38.42;24.70;;;6.00;99.90;;;;;;6216936;23;20012;-79
2022/01/24 10:44:35;;;;;;;38.70;24.95;;;5.80;99.90;;;;;;6217826;23;20070;-79
2022/01/24 10:47:15;;;;;;;42.13;27.23;;;5.80;99.90;;;;;;6192808;23;20471;-80
2022/01/24 10:49:41;;;;;;;43.10;26.60;;;5.80;99.90;;;;;;6192234;23;20020;-80
2022/01/24 10:52:13;;;;;;;39.70;26.27;;;6.00;99.90;;;;;;6192566;23;20062;-81
2022/01/24 10:54:39;;;;;;;44.03;25.75;;;5.90;99.90;;;;;;6217641;23;20088;-80
2022/01/24 10:57:04;;;;;;;45.40;26.83;;;5.80;99.90;;;;;;6217968;23;20510;-77
2022/01/24 10:59:30;;;;;;;50.80;26.58;;;5.80;99.90;;;;;;6217571;23;20377;-80
2022/01/24 11:02:04;;;;;;;40.92;27.02;;;5.80;99.90;;;;;;6192593;23;20519;-80
2022/01/24 11:04:30;;;;;;;45.63;27.13;;;5.80;99.90;;;;;;6191989;23;20371;-78
2022/01/24 11:06:59;;;;;;;42.33;26.80;;;5.90;99.90;;;;;;6217356;23;20074;-81
2022/01/24 11:09:35;;;;;;;39.47;25.75;;;5.80;99.90;;;;;;6216853;23;20111;-78
2022/01/24 11:12:10;;;;;;;41.33;26.35;;;5.90;99.90;;;;;;6217721;23;20424;-79
2022/01/24 11:14:36;;;;;;;;;;;5.80;99.90;;;;;;6217983;23;20361;-79
2022/01/24 11:17:04;;;;;;;41.35;25.15;;;5.80;99.90;;;;;;6217572;23;19912;-77
2022/01/24 11:19:57;;;;;;;42.70;25.83;;;5.80;99.90;;;;;;6244293;23;20087;-80
2022/01/24 11:22:22;;;;;;;41.90;26.70;;;5.80;99.90;;;;;;6216843;23;20048;-77
2022/01/24 11:24:57;;;;;;;44.78;27.83;;;5.80;99.90;;;;;;6217055;23;20091;-80
2022/01/24 11:27:24;;;;;;;48.78;28.25;;;5.80;99.90;;;;;;6192379;23;20508;-81
2022/01/24 11:29:55;;;;;;;46.00;29.73;;;5.90;99.90;;;;;;6217330;23;20008;-77
2022/01/24 11:32:38;;;;;;;44.13;28.13;;;5.80;99.90;;;;;;6216659;23;20095;-79
2022/01/24 11:35:05;;;;;;;50.85;30.85;;;5.90;99.90;;;;;;6217518;23;20070;-80
2022/01/24 11:37:45;;;;;;;46.75;29.90;;;5.80;99.90;;;;;;6217225;23;20437;-80
2022/01/24 11:40:20;;;;;;;56.08;30.98;;;5.80;99.90;;;;;;6216698;23;20020;-78
2022/01/24 11:42:47;;;;;;;50.40;31.75;;;5.80;99.90;;;;;;6192050;23;20023;-80
2022/01/24 11:45:17;;;;;;;52.25;31.20;;;6.10;99.90;;;;;;6217376;23;20012;-80
2022/01/24 11:47:47;;;;;;;52.35;31.05;;;5.80;99.90;;;;;;6216644;23;20432;-78
2022/01/24 11:50:36;;;;;;;51.95;31.35;;;5.90;99.90;;;;;;6192244;23;20087;-81
2022/01/24 11:53:29;;;;;;;50.17;30.13;;;5.90;99.90;;;;;;6217141;23;20031;-78
2022/01/24 11:55:56;;;;;;;46.67;29.02;;;5.80;99.90;;;;;;6191495;23;20062;-78
2022/01/24 11:58:27;;;;;;;75.60;39.42;;;5.80;99.90;;;;;;6217294;23;20044;-81
2022/01/24 12:00:55;;;;;;;45.15;28.25;;;5.80;99.90;;;;;;6192093;23;20049;-81
2022/01/24 12:03:26;;;;;;;47.20;29.10;;;5.80;99.90;;;;;;6191156;23;20016;-78
2022/01/24 12:05:58;;;;;;;44.55;26.60;;;5.80;99.90;;;;;;6191814;23;20012;-79
2022/01/24 12:08:41;;;;;;;43.30;26.95;;;5.80;99.90;;;;;;6216615;23;20023;-81
2022/01/24 12:11:11;;;;;;;46.00;26.25;;;5.90;99.90;;;;;;6216520;23;20016;-78
2022/01/24 12:13:46;;;;;;;42.45;25.92;;;6.10;99.90;;;;;;6191852;23;20408;-78
2022/01/24 12:16:13;;;;;;;;;;;5.90;99.90;;;;;;6191474;23;20026;-80
2022/01/24 12:18:38;;;;;;;42.20;22.98;;;5.90;99.90;;;;;;6243884;23;19987;-78
2022/01/24 12:21:11;;;;;;;35.38;23.65;;;6.00;99.90;;;;;;6191884;23;20412;-81
2022/01/24 12:23:47;;;;;;;37.60;23.17;;;5.80;99.90;;;;;;6217077;23;20118;-79
2022/01/24 12:26:13;;;;;;;43.55;26.20;;;5.90;99.90;;;;;;6191158;23;20095;-78
2022/01/24 12:28:41;;;;;;;41.38;24.75;;;5.90;99.90;;;;;;6191653;23;20091;-79
2022/01/24 12:31:17;;;;;;;41.65;25.48;;;5.80;99.90;;;;;;6244423;23;20016;-80
2022/01/24 12:33:50;;;;;;;45.38;25.45;;;5.90;99.90;;;;;;6190418;23;20091;-78
2022/01/24 12:36:36;;;;;;;37.17;24.58;;;5.80;99.90;;;;;;6217216;23;20020;-80
2022/01/24 12:39:22;;;;;;;39.38;24.38;;;5.90;99.90;;;;;;6216127;23;20107;-79
2022/01/24 12:41:51;;;;;;;41.13;25.67;;;5.90;99.90;;;;;;6216940;23;20339;-80
2022/01/24 12:47:12;;;;;;;39.38;23.90;;;5.90;99.90;;;;;;6216376;23;20362;-78
2022/01/24 12:49:38;;;;;;;39.40;23.88;;;5.90;99.90;;;;;;6215703;23;20348;-80
2022/01/24 12:52:06;;;;;;;37.50;24.55;;;6.10;99.90;;;;;;6216693;23;20018;-79
2022/01/24 12:54:35;;;;;;;39.17;24.35;;;5.90;99.90;;;;;;6215877;23;20317;-79
2022/01/24 12:57:03;;;;;;;42.92;25.50;;;5.90;99.90;;;;;;6216799;23;20012;-78
2022/01/24 12:59:29;;;;;;;43.28;27.10;;;5.90;99.90;;;;;;6216522;23;20147;-80
2022/01/24 13:01:57;;;;;;;44.72;27.40;;;5.80;99.90;;;;;;6191662;23;20044;-78
2022/01/24 13:04:33;;;;;;;42.92;27.38;;;5.90;99.90;;;;;;6190381;23;20464;-77
2022/01/24 13:06:59;;;;;;;48.15;28.55;;;5.90;99.90;;;;;;6191323;23;20026;-81
2022/01/24 13:09:25;;;;;;;45.25;28.38;;;5.80;99.90;;;;;;6215555;23;20052;-80
2022/01/24 13:12:00;;;;;;;45.42;28.33;;;5.80;99.90;;;;;;6189781;23;20016;-79
2022/01/24 13:14:48;;;;;;;44.35;27.38;;;5.80;99.90;;;;;;6215733;23;20091;-78
2022/01/24 13:25:26;;;;;;;39.67;24.95;;;5.80;99.90;;;;;;6242585;23;20024;-80
2022/01/24 13:28:00;;;;;;;38.30;24.45;;;5.70;99.90;;;;;;6217498;23;20372;-78
2022/01/24 13:30:30;;;;;;;37.03;24.50;;;6.10;99.90;;;;;;6218252;23;20032;-78
2022/01/24 13:32:58;;;;;;;37.70;24.30;;;5.80;99.90;;;;;;6192561;23;20347;-79
2022/01/24 13:35:31;;;;;;;40.00;25.60;;;5.80;99.90;;;;;;6245500;23;20012;-78
2022/01/24 13:38:00;;;;;;;41.30;25.92;;;5.80;99.90;;;;;;6217710;23;20348;-79
2022/01/24 13:40:56;;;;;;;39.10;25.15;;;5.90;99.90;;;;;;6217557;23;20021;-78
2022/01/24 13:43:53;;;;;;;50.85;32.40;;;5.70;99.90;;;;;;6193035;23;20035;-80
2022/01/24 13:46:39;;;;;;;41.88;26.90;;;5.70;99.90;;;;;;6216858;23;20016;-80
2022/01/24 13:49:06;;;;;;;44.70;27.35;;;5.70;99.90;;;;;;6217189;23;20017;-81
2022/01/24 13:51:43;;;;;;;42.17;27.48;;;5.60;99.90;;;;;;6217775;23;20091;-80
2022/01/24 13:54:17;;;;;;;41.10;26.63;;;5.70;99.90;;;;;;6217249;23;20090;-80
2022/01/24 13:56:44;;;;;;;45.08;26.73;;;5.70;99.90;;;;;;6192828;23;20012;-78
2022/01/24 13:59:29;;;;;;;42.88;27.33;;;5.80;99.90;;;;;;6192622;23;20039;-78
2022/01/24 14:02:06;;;;;;;38.58;24.83;;;5.70;99.90;;;;;;6192996;23;20027;-78
2022/01/24 14:04:41;;;;;;;39.17;25.08;;;5.60;99.90;;;;;;6217287;23;20344;-78
2022/01/24 14:07:13;;;;;;;40.92;26.38;;;5.60;99.90;;;;;;6217355;23;20019;-78
2022/01/24 14:09:45;;;;;;;46.67;27.25;;;5.70;99.90;;;;;;6216964;23;20047;-77
2022/01/24 14:12:14;;;;;;;46.78;26.40;;;5.60;99.90;;;;;;6245154;23;20047;-78
2022/01/24 14:14:57;;;;;;;46.45;25.55;;;5.60;99.90;;;;;;6217714;23;20100;-78
2022/01/24 14:20:10;;;;;;;45.15;26.52;;;5.60;99.90;;;;;;6217488;23;20020;-79
2022/01/24 14:22:53;;;;;;;44.35;25.80;;;5.60;99.90;;;;;;6217350;23;20012;-78
2022/01/24 14:25:29;;;;;;;40.22;24.73;;;5.60;99.90;;;;;;6216977;23;20023;-79
2022/01/24 14:28:04;;;;;;;41.22;24.20;;;5.60;99.90;;;;;;6192475;23;20016;-79
2022/01/24 14:30:40;;;;;;;38.85;23.38;;;5.60;99.90;;;;;;6191572;23;20436;-79
2022/01/24 14:33:15;;;;;;;38.10;23.55;;;5.60;99.90;;;;;;6217013;23;20020;-79
2022/01/24 14:36:00;;;;;;;41.92;24.13;;;5.50;99.90;;;;;;6217939;23;20046;-79
2022/01/24 14:38:32;;;;;;;;;;;5.50;99.90;;;;;;6217941;23;20043;-77
2022/01/24 14:41:02;;;;;;;39.33;24.08;;;5.50;99.90;;;;;;6192191;23;20033;-81
2022/01/24 14:46:18;;;;;;;33.72;21.48;;;5.50;99.90;;;;;;6217872;23;20048;-80
2022/01/24 14:48:44;;;;;;;37.03;22.75;;;5.50;99.90;;;;;;6217264;23;20368;-79
2022/01/24 14:51:10;;;;;;;41.65;21.63;;;5.50;99.90;;;;;;6217715;23;20019;-80
2022/01/24 14:53:36;;;;;;;33.67;21.90;;;5.50;99.90;;;;;;6244369;23;20515;-79
2022/01/24 14:56:01;;;;;;;38.05;23.35;;;5.50;99.90;;;;;;6216875;23;20050;-79
2022/01/24 14:58:27;;;;;;;34.92;21.92;;;5.50;99.90;;;;;;6217346;23;20038;-79
2022/01/24 15:00:53;;;;;;;36.63;22.42;;;5.40;99.90;;;;;;6191891;23;20063;-78
2022/01/24 15:03:19;;;;;;;37.75;23.52;;;5.50;99.90;;;;;;6217182;23;20043;-77
2022/01/24 15:05:45;;;;;;;36.65;23.00;;;5.50;99.90;;;;;;6217371;23;20016;-77
2022/01/24 15:08:11;;;;;;;38.28;23.33;;;5.60;99.90;;;;;;6217368;23;20020;-77
2022/01/24 15:10:37;;;;;;;38.28;22.98;;;5.50;99.90;;;;;;6186709;23;20013;-79
2022/01/24 15:13:06;;;;;;;42.00;23.73;;;5.50;99.90;;;;;;6212664;23;20047;-79
2022/01/24 15:15:36;;;;;;;36.33;22.70;;;5.40;99.90;;;;;;6212578;23;20044;-79
2022/01/24 15:26:03;;;;;;;38.78;24.45;;;5.30;99.90;;;;;;6211744;23;20016;-80
2022/01/24 15:28:29;;;;;;;41.45;25.17;;;5.30;99.90;;;;;;6187223;23;20017;-81
2022/01/24 15:30:54;;;;;;;39.92;25.58;;;5.30;99.90;;;;;;6212118;23;20011;-80
2022/01/24 15:33:21;;;;;;;47.97;29.23;;;5.60;99.90;;;;;;6212067;23;20078;-80